createdAt,value
2022-10-22T00:01:10.478Z,11.80
2022-10-22T00:06:02.753Z,11.80
2022-10-22T00:10:55.019Z,11.90
2022-10-22T00:15:47.180Z,12.10
2022-10-22T00:20:39.855Z,12.20
2022-10-22T00:25:36.548Z,12.30
2022-10-22T00:30:28.839Z,12.40
2022-10-22T00:35:22.294Z,12.40
2022-10-22T00:40:14.659Z,12.30
2022-10-22T00:45:09.641Z,12.20
2022-10-22T00:55:01.795Z,12.00
2022-10-22T00:59:55.874Z,12.00
2022-10-22T01:04:48.197Z,11.90
2022-10-22T01:09:46.917Z,11.90
2022-10-22T01:14:45.154Z,11.90
2022-10-22T01:20:06.545Z,12.10
2022-10-22T01:25:11.213Z,12.20
2022-10-22T01:30:07.537Z,12.20
2022-10-22T01:35:04.434Z,12.20
2022-10-22T01:40:01.462Z,12.30
2022-10-22T01:44:53.768Z,12.40
2022-10-22T01:50:14.926Z,12.40
2022-10-22T01:55:37.542Z,12.50
2022-10-22T02:00:30.132Z,12.50
2022-10-22T02:05:28.706Z,12.50
2022-10-22T02:10:22.434Z,12.50
2022-10-22T02:15:19.662Z,12.50
2022-10-22T02:20:26.242Z,12.50
2022-10-22T02:25:20.460Z,12.40
2022-10-22T02:30:19.256Z,12.50
2022-10-22T02:35:17.390Z,12.50
2022-10-22T02:40:10.341Z,12.60
2022-10-22T02:45:02.535Z,12.60
2022-10-22T02:49:54.750Z,12.70
2022-10-22T02:54:47.003Z,12.70
2022-10-22T02:59:39.213Z,12.70
2022-10-22T03:04:32.319Z,12.70
2022-10-22T03:09:25.002Z,12.70
2022-10-22T03:14:18.871Z,12.70
2022-10-22T03:19:11.911Z,12.70
2022-10-22T03:24:09.855Z,12.70
2022-10-22T03:29:02.733Z,12.70
2022-10-22T03:33:57.706Z,12.60
2022-10-22T03:38:50.299Z,12.60
2022-10-22T03:43:42.698Z,12.70
2022-10-22T03:48:34.955Z,12.70
2022-10-22T03:53:27.106Z,12.70
2022-10-22T03:58:20.715Z,12.70
2022-10-22T04:03:12.893Z,12.70
2022-10-22T04:08:05.305Z,12.60
2022-10-22T04:12:57.554Z,12.60
2022-10-22T04:17:49.769Z,12.50
2022-10-22T04:22:43.525Z,12.50
2022-10-22T04:27:35.988Z,12.50
2022-10-22T04:32:28.904Z,12.50
2022-10-22T04:37:21.355Z,12.60
2022-10-22T04:42:13.902Z,12.60
2022-10-22T04:47:07.610Z,12.50
2022-10-22T04:51:59.939Z,12.60
2022-10-22T04:56:52.375Z,12.60
2022-10-22T05:01:44.949Z,12.60
2022-10-22T05:06:37.874Z,12.40
2022-10-22T05:11:34.012Z,12.30
2022-10-22T05:16:27.848Z,12.30
2022-10-22T05:21:21.983Z,12.40
2022-10-22T05:26:17.211Z,12.40
2022-10-22T05:31:12.290Z,12.30
2022-10-22T05:36:06.868Z,12.30
2022-10-22T05:41:11.870Z,12.40
2022-10-22T05:51:13.693Z,12.50
2022-10-22T05:56:11.534Z,12.50
2022-10-22T06:01:14.416Z,12.50
2022-10-22T06:06:22.200Z,12.60
2022-10-22T06:11:14.578Z,12.60
2022-10-22T06:16:07.073Z,12.60
2022-10-22T06:21:07.861Z,12.70
2022-10-22T06:26:03.959Z,12.70
2022-10-22T06:30:58.938Z,12.70
2022-10-22T06:35:51.182Z,12.80
2022-10-22T06:40:44.993Z,12.90
2022-10-22T06:45:39.675Z,12.90
2022-10-22T06:50:32.027Z,13.00
2022-10-22T06:55:26.636Z,13.00
2022-10-22T07:00:19.107Z,13.00
2022-10-22T07:05:11.371Z,13.00
2022-10-22T07:10:03.826Z,13.00
2022-10-22T07:14:56.109Z,13.00
2022-10-22T07:19:51.126Z,13.10
2022-10-22T07:24:44.242Z,13.00
2022-10-22T07:29:36.776Z,13.00
2022-10-22T07:34:29.015Z,13.00
2022-10-22T07:39:21.353Z,13.00
2022-10-22T07:44:13.596Z,13.00
2022-10-22T07:49:06.266Z,13.00
2022-10-22T07:54:01.503Z,12.90
2022-10-22T07:58:53.919Z,13.00
2022-10-22T08:03:46.210Z,12.90
2022-10-22T08:08:39.189Z,12.80
2022-10-22T08:13:32.015Z,12.80
2022-10-22T08:18:24.342Z,12.80
2022-10-22T08:23:16.801Z,12.80
2022-10-22T08:28:09.026Z,12.90
2022-10-22T08:33:01.531Z,12.90
2022-10-22T08:37:53.846Z,13.00
2022-10-22T08:43:21.978Z,13.20
2022-10-22T08:48:26.920Z,13.40
2022-10-22T08:53:23.098Z,13.90
2022-10-22T08:58:49.812Z,14.40
2022-10-22T09:03:55.282Z,14.70
2022-10-22T09:08:48.737Z,14.80
2022-10-22T09:13:43.515Z,14.90
2022-10-22T09:18:50.682Z,14.80
2022-10-22T09:23:54.146Z,14.80
2022-10-22T09:28:51.223Z,14.90
2022-10-22T09:33:48.001Z,15.20
2022-10-22T09:38:46.533Z,15.60
2022-10-22T09:43:38.798Z,16.20
2022-10-22T09:48:39.453Z,16.90
2022-10-22T09:53:37.491Z,18.00
2022-10-22T09:58:46.148Z,18.70
2022-10-22T10:03:41.149Z,19.40
2022-10-22T10:08:33.733Z,20.70
2022-10-22T10:13:50.597Z,21.50
2022-10-22T10:19:16.182Z,23.10
2022-10-22T10:24:21.824Z,23.50
2022-10-22T10:35:20.803Z,21.90
2022-10-22T10:40:46.575Z,23.90
2022-10-22T10:45:56.527Z,23.80
2022-10-22T10:51:07.589Z,27.10
2022-10-22T10:56:44.063Z,27.60
2022-10-22T11:01:39.353Z,28.00
2022-10-22T11:06:34.490Z,27.70
2022-10-22T11:11:54.120Z,24.80
2022-10-22T11:17:04.516Z,22.70
2022-10-22T11:22:05.876Z,21.20
2022-10-22T11:27:30.601Z,20.30
2022-10-22T11:32:23.912Z,19.60
2022-10-22T11:37:17.826Z,19.00
2022-10-22T11:42:32.113Z,18.90
2022-10-22T11:47:28.214Z,18.90
2022-10-22T11:52:28.414Z,19.00
2022-10-22T11:57:36.527Z,19.00
2022-10-22T12:02:28.806Z,19.10
2022-10-22T12:07:55.168Z,19.20
2022-10-22T12:13:20.007Z,19.30
2022-10-22T12:23:12.916Z,18.90
2022-10-22T12:28:05.657Z,18.80
2022-10-22T12:33:03.185Z,18.70
2022-10-22T12:38:11.223Z,18.60
2022-10-22T12:43:13.177Z,18.50
2022-10-22T12:48:28.337Z,18.20
2022-10-22T12:53:33.052Z,18.10
2022-10-22T12:58:34.295Z,18.10
2022-10-22T13:03:30.957Z,18.10
2022-10-22T13:08:29.367Z,18.10
2022-10-22T13:13:31.787Z,18.20
2022-10-22T13:18:26.172Z,18.20
2022-10-22T13:23:22.352Z,18.30
2022-10-22T13:28:22.543Z,18.30
2022-10-22T13:33:30.628Z,18.30
2022-10-22T13:38:29.484Z,18.20
2022-10-22T13:43:25.512Z,18.30
2022-10-22T13:48:23.302Z,18.30
2022-10-22T13:53:24.138Z,18.30
2022-10-22T13:58:23.680Z,18.20
2022-10-22T14:03:19.042Z,18.20
2022-10-22T14:08:20.505Z,18.20
2022-10-22T14:13:16.331Z,18.20
2022-10-22T14:18:15.739Z,18.20
2022-10-22T14:23:23.424Z,18.10
2022-10-22T14:28:15.897Z,18.00
2022-10-22T14:33:32.915Z,18.00
2022-10-22T14:38:26.514Z,18.00
2022-10-22T14:43:28.412Z,18.10
2022-10-22T14:48:24.177Z,18.20
2022-10-22T14:53:17.022Z,18.20
2022-10-22T14:58:09.725Z,18.10
2022-10-22T15:03:04.327Z,18.00
2022-10-22T15:07:59.207Z,18.00
2022-10-22T15:12:53.585Z,18.00
2022-10-22T15:17:48.892Z,17.90
2022-10-22T15:22:41.951Z,17.90
2022-10-22T15:27:38.201Z,17.80
2022-10-22T15:32:34.299Z,17.60
2022-10-22T15:37:27.303Z,17.30
2022-10-22T15:42:24.022Z,17.10
2022-10-22T15:47:16.440Z,16.80
2022-10-22T15:52:18.808Z,16.60
2022-10-22T15:57:11.503Z,16.50
2022-10-22T16:02:09.054Z,16.20
2022-10-22T16:07:07.316Z,15.90
2022-10-22T16:12:01.416Z,15.70
2022-10-22T16:16:57.506Z,15.40
2022-10-22T16:21:54.515Z,15.20
2022-10-22T16:26:47.687Z,15.00
2022-10-22T16:31:41.385Z,14.80
2022-10-22T16:36:34.135Z,14.60
2022-10-22T16:41:35.212Z,14.40
2022-10-22T16:46:27.595Z,14.30
2022-10-22T16:51:24.303Z,14.20
2022-10-22T16:56:20.028Z,14.10
2022-10-22T17:01:14.913Z,14.00
2022-10-22T17:06:11.979Z,13.90
2022-10-22T17:11:17.451Z,13.80
2022-10-22T17:16:13.059Z,13.70
2022-10-22T17:21:10.200Z,13.60
2022-10-22T17:26:07.470Z,13.60
2022-10-22T17:31:09.307Z,13.50
2022-10-22T17:36:02.921Z,13.50
2022-10-22T17:40:59.178Z,13.60
2022-10-22T17:45:55.238Z,13.50
2022-10-22T17:50:55.767Z,13.30
2022-10-22T17:55:58.611Z,13.20
2022-10-22T18:01:06.113Z,13.10
2022-10-22T18:06:16.956Z,13.20
2022-10-22T18:11:42.230Z,13.30
2022-10-22T18:16:42.222Z,13.10
2022-10-22T18:21:40.507Z,12.90
2022-10-22T18:26:42.072Z,12.80
2022-10-22T18:31:42.012Z,12.70
2022-10-22T18:36:34.252Z,12.70
2022-10-22T18:41:28.747Z,12.50
2022-10-22T18:46:29.926Z,12.40
2022-10-22T18:51:38.073Z,12.40
2022-10-22T18:56:31.509Z,12.30
2022-10-22T19:01:27.993Z,12.20
2022-10-22T19:06:35.905Z,12.10
2022-10-22T19:11:42.513Z,12.10
2022-10-22T19:16:37.792Z,12.00
2022-10-22T19:21:45.855Z,11.80
2022-10-22T19:26:45.730Z,11.70
2022-10-22T19:31:47.162Z,11.70
2022-10-22T19:36:42.655Z,11.80
2022-10-22T19:41:44.650Z,11.90
2022-10-22T19:46:37.349Z,11.80
2022-10-22T19:51:39.012Z,11.70
2022-10-22T19:56:38.628Z,11.90
2022-10-22T21:53:57.938Z,11.50
2022-10-22T21:58:52.814Z,11.40
2022-10-22T22:03:49.221Z,11.30
2022-10-22T22:08:42.369Z,11.20
2022-10-22T22:13:35.057Z,11.20
2022-10-22T22:18:27.337Z,11.20
2022-10-22T22:23:20.748Z,11.20
2022-10-22T22:28:15.674Z,11.10
2022-10-22T22:33:07.899Z,11.10
2022-10-22T22:38:00.095Z,11.00
2022-10-22T22:42:55.169Z,11.00
2022-10-22T22:47:47.510Z,11.00
2022-10-22T22:52:40.293Z,10.80
2022-10-22T22:57:32.760Z,10.90
2022-10-22T23:02:25.023Z,10.80
2022-10-22T23:07:17.178Z,10.80
2022-10-22T23:12:09.661Z,10.70
2022-10-22T23:17:01.867Z,10.70
2022-10-22T23:21:55.814Z,10.60
2022-10-22T23:26:49.889Z,10.60
2022-10-22T23:31:43.397Z,10.50
2022-10-22T23:36:37.302Z,10.40
2022-10-22T23:41:29.457Z,10.30
2022-10-22T23:46:23.947Z,10.20
2022-10-22T23:51:17.267Z,10.10
2022-10-22T23:56:18.430Z,10.20
